createdAt,value
2018-12-09T00:02:05.976Z,0.63
2018-12-09T00:04:32.968Z,2.37
2018-12-09T00:06:59.215Z,0.50
2018-12-09T00:09:25.509Z,1.10
2018-12-09T00:11:51.768Z,1.47
2018-12-09T00:14:18.006Z,0.90
2018-12-09T00:16:44.290Z,1.53
2018-12-09T00:19:11.344Z,1.40
2018-12-09T00:21:37.565Z,1.80
2018-12-09T00:24:04.078Z,1.43
2018-12-09T00:26:31.085Z,1.20
2018-12-09T00:28:58.067Z,2.67
2018-12-09T00:31:25.218Z,1.87
2018-12-09T00:33:51.466Z,2.40
2018-12-09T00:36:17.746Z,1.47
2018-12-09T00:38:44.075Z,3.93
2018-12-09T00:41:10.337Z,2.73
2018-12-09T00:43:36.605Z,4.00
2018-12-09T00:46:02.851Z,1.87
2018-12-09T00:48:29.098Z,0.87
2018-12-09T00:50:56.104Z,2.50
2018-12-09T00:53:22.396Z,2.93
2018-12-09T00:55:49.264Z,2.87
2018-12-09T00:58:15.507Z,4.00
2018-12-09T01:00:41.782Z,1.53
2018-12-09T01:03:08.852Z,1.60
2018-12-09T01:05:35.107Z,5.63
2018-12-09T01:08:01.392Z,2.57
2018-12-09T01:10:28.380Z,2.27
2018-12-09T01:12:54.681Z,3.03
2018-12-09T01:15:20.976Z,2.73
2018-12-09T01:17:48.248Z,2.53
2018-12-09T01:20:14.498Z,2.27
2018-12-09T01:22:40.733Z,1.43
2018-12-09T01:25:07.028Z,1.00
2018-12-09T01:27:33.307Z,2.30
2018-12-09T01:29:59.682Z,0.93
2018-12-09T01:32:26.007Z,1.97
2018-12-09T01:34:53.004Z,1.27
2018-12-09T01:37:19.287Z,1.37
2018-12-09T01:39:46.428Z,2.90
2018-12-09T01:42:12.745Z,3.13
2018-12-09T01:44:39.801Z,1.97
2018-12-09T01:47:06.824Z,3.17
2018-12-09T01:49:33.333Z,2.00
2018-12-09T01:51:59.630Z,4.43
2018-12-09T01:54:25.888Z,4.93
2018-12-09T01:56:52.189Z,2.37
2018-12-09T01:59:18.489Z,4.17
2018-12-09T02:01:44.782Z,3.03
2018-12-09T02:04:11.048Z,3.37
2018-12-09T02:06:38.306Z,4.07
2018-12-09T02:09:05.373Z,4.00
2018-12-09T02:11:31.680Z,3.60
2018-12-09T02:13:58.798Z,6.50
2018-12-09T02:16:25.728Z,3.57
2018-12-09T02:21:53.802Z,5.18
2018-12-09T02:24:20.296Z,4.23
2018-12-09T02:26:46.686Z,2.50
2018-12-09T02:29:12.924Z,5.70
2018-12-09T02:31:39.361Z,5.30
2018-12-09T02:34:05.968Z,8.50
2018-12-09T02:36:31.946Z,4.53
2018-12-09T02:38:59.001Z,2.97
2018-12-09T02:41:26.031Z,2.80
2018-12-09T02:43:53.014Z,5.37
2018-12-09T02:46:19.524Z,6.30
2018-12-09T02:48:45.789Z,3.13
2018-12-09T02:51:12.096Z,3.17
2018-12-09T02:53:38.393Z,4.23
2018-12-09T02:56:05.426Z,4.60
2018-12-09T02:58:31.918Z,3.97
2018-12-09T03:00:58.184Z,2.90
2018-12-09T03:03:24.446Z,2.83
2018-12-09T03:05:51.452Z,5.97
2018-12-09T03:08:17.729Z,5.83
2018-12-09T03:10:43.992Z,3.90
2018-12-09T03:13:10.447Z,4.33
2018-12-09T03:15:36.666Z,7.03
2018-12-09T03:18:02.925Z,5.17
2018-12-09T03:20:29.917Z,6.20
2018-12-09T03:22:56.518Z,4.10
2018-12-09T03:25:22.768Z,6.87
2018-12-09T03:27:49.030Z,5.03
2018-12-09T03:30:15.352Z,6.37
2018-12-09T03:32:41.597Z,6.43
2018-12-09T03:35:07.895Z,5.17
2018-12-09T03:37:34.145Z,7.60
2018-12-09T03:40:00.421Z,5.87
2018-12-09T03:42:26.952Z,7.00
2018-12-09T03:44:53.272Z,10.67
2018-12-09T03:47:20.264Z,4.83
2018-12-09T03:49:46.558Z,6.17
2018-12-09T03:52:12.825Z,9.83
2018-12-09T03:54:39.088Z,10.47
2018-12-09T03:57:05.400Z,12.63
2018-12-09T03:59:31.773Z,15.70
2018-12-09T04:01:58.601Z,12.27
2018-12-09T04:04:25.580Z,12.77
2018-12-09T04:06:51.852Z,18.67
2018-12-09T04:09:18.121Z,12.73
2018-12-09T04:11:44.363Z,17.67
2018-12-09T04:14:10.666Z,15.13
2018-12-09T04:16:37.717Z,14.00
2018-12-09T04:19:04.758Z,12.30
2018-12-09T04:21:31.053Z,18.33
2018-12-09T04:23:57.346Z,15.57
2018-12-09T04:26:23.638Z,17.20
2018-12-09T04:28:50.652Z,12.67
2018-12-09T04:31:17.173Z,13.53
2018-12-09T04:33:43.450Z,14.57
2018-12-09T04:36:10.475Z,16.03
2018-12-09T04:38:36.729Z,12.57
2018-12-09T04:41:03.063Z,12.17
2018-12-09T04:43:29.337Z,12.07
2018-12-09T04:45:55.601Z,9.60
2018-12-09T04:48:23.443Z,10.33
2018-12-09T04:50:49.757Z,12.93
2018-12-09T04:53:16.024Z,9.93
2018-12-09T04:55:43.027Z,15.73
2018-12-09T04:58:09.339Z,13.37
2018-12-09T05:00:56.500Z,11.93
2018-12-09T05:03:22.788Z,8.70
2018-12-09T05:05:49.033Z,9.37
2018-12-09T05:08:15.325Z,10.17
2018-12-09T05:10:41.592Z,13.17
2018-12-09T05:13:07.877Z,9.27
2018-12-09T05:15:34.923Z,12.07
2018-12-09T05:18:01.181Z,9.60
2018-12-09T05:20:27.452Z,9.07
2018-12-09T05:22:54.535Z,9.93
2018-12-09T05:25:20.784Z,8.63
2018-12-09T05:27:47.056Z,15.13
2018-12-09T05:30:14.144Z,11.83
2018-12-09T05:32:40.439Z,10.37
2018-12-09T05:35:07.492Z,12.37
2018-12-09T05:37:34.740Z,11.70
2018-12-09T05:40:01.774Z,10.23
2018-12-09T05:42:28.776Z,12.03
2018-12-09T05:44:55.020Z,13.43
2018-12-09T05:47:21.272Z,8.73
2018-12-09T05:49:47.548Z,10.27
2018-12-09T05:52:13.828Z,7.47
2018-12-09T05:54:40.089Z,6.33
2018-12-09T05:57:06.382Z,6.03
2018-12-09T05:59:32.627Z,4.00
2018-12-09T06:02:11.836Z,1.87
2018-12-09T06:04:38.115Z,7.03
2018-12-09T06:07:04.461Z,6.57
2018-12-09T06:09:30.731Z,1.70
2018-12-09T06:11:56.969Z,2.53
2018-12-09T06:14:23.959Z,3.17
2018-12-09T06:16:50.914Z,3.00
2018-12-09T06:19:17.192Z,4.87
2018-12-09T06:21:44.960Z,4.97
2018-12-09T06:24:11.949Z,5.67
2018-12-09T06:26:38.183Z,4.90
2018-12-09T06:29:04.460Z,4.93
2018-12-09T06:31:31.523Z,5.40
2018-12-09T06:33:57.854Z,9.10
2018-12-09T06:36:24.121Z,9.07
2018-12-09T06:38:50.364Z,6.90
2018-12-09T06:41:16.604Z,7.50
2018-12-09T06:43:43.644Z,9.40
2018-12-09T06:46:09.932Z,7.50
2018-12-09T06:48:36.203Z,6.27
2018-12-09T06:51:02.443Z,5.20
2018-12-09T06:53:29.433Z,6.03
2018-12-09T06:55:55.703Z,4.80
2018-12-09T06:58:21.958Z,4.87
2018-12-09T07:00:48.988Z,7.33
2018-12-09T07:03:15.257Z,6.80
2018-12-09T07:05:41.555Z,3.93
2018-12-09T07:08:08.576Z,6.77
2018-12-09T07:10:35.087Z,8.80
2018-12-09T07:13:01.387Z,6.17
2018-12-09T07:15:27.703Z,6.93
2018-12-09T07:17:54.021Z,6.70
2018-12-09T07:20:21.107Z,7.53
2018-12-09T07:22:47.388Z,9.53
2018-12-09T07:25:13.737Z,11.97
2018-12-09T07:27:40.001Z,7.07
2018-12-09T07:30:06.454Z,7.17
2018-12-09T07:32:32.701Z,7.97
2018-12-09T07:34:59.709Z,5.53
2018-12-09T07:37:26.017Z,8.03
2018-12-09T07:39:52.280Z,9.80
2018-12-09T07:42:18.555Z,9.43
2018-12-09T07:44:44.847Z,7.93
2018-12-09T07:47:11.133Z,11.37
2018-12-09T07:49:37.388Z,14.67
2018-12-09T07:52:03.658Z,16.23
2018-12-09T07:54:29.941Z,9.97
2018-12-09T07:56:56.200Z,8.70
2018-12-09T07:59:22.432Z,11.13
2018-12-09T08:01:48.722Z,9.33
2018-12-09T08:04:15.030Z,9.00
2018-12-09T08:06:41.321Z,12.60
2018-12-09T08:09:08.096Z,17.17
2018-12-09T08:11:34.368Z,8.53
2018-12-09T08:14:00.628Z,18.47
2018-12-09T08:16:26.864Z,14.03
2018-12-09T08:18:53.129Z,12.50
2018-12-09T08:21:19.535Z,10.37
2018-12-09T08:23:45.821Z,8.23
2018-12-09T08:26:12.089Z,9.17
2018-12-09T08:28:38.453Z,10.80
2018-12-09T08:31:05.575Z,12.17
2018-12-09T08:33:31.852Z,15.17
2018-12-09T08:35:58.111Z,11.70
2018-12-09T08:38:24.402Z,17.97
2018-12-09T08:40:50.669Z,14.07
2018-12-09T08:43:17.712Z,12.07
2018-12-09T08:45:44.726Z,11.00
2018-12-09T08:48:11.034Z,12.63
2018-12-09T08:50:37.330Z,17.27
2018-12-09T08:53:04.662Z,12.00
2018-12-09T08:55:31.736Z,14.30
2018-12-09T08:57:58.756Z,20.23
2018-12-09T09:00:25.925Z,11.93
2018-12-09T09:02:52.264Z,16.50
2018-12-09T09:05:18.604Z,12.60
2018-12-09T09:07:44.896Z,12.27
2018-12-09T09:10:11.432Z,14.40
2018-12-09T09:12:37.729Z,11.97
2018-12-09T09:15:04.002Z,18.33
2018-12-09T09:17:30.302Z,14.87
2018-12-09T09:19:56.602Z,15.97
2018-12-09T09:22:22.894Z,11.07
2018-12-09T09:24:49.172Z,12.73
2018-12-09T09:27:15.413Z,17.37
2018-12-09T09:29:41.960Z,17.70
2018-12-09T09:32:08.156Z,16.30
2018-12-09T09:34:34.488Z,14.33
2018-12-09T09:37:01.550Z,15.73
2018-12-09T09:39:27.849Z,18.27
2018-12-09T09:41:54.105Z,17.43
2018-12-09T09:44:20.403Z,13.47
2018-12-09T09:46:46.628Z,15.40
2018-12-09T09:49:12.894Z,16.50
2018-12-09T09:51:39.152Z,17.47
2018-12-09T09:54:05.773Z,12.83
2018-12-09T09:56:32.792Z,12.60
2018-12-09T09:58:59.078Z,12.27
2018-12-09T10:01:25.739Z,13.47
2018-12-09T10:03:52.188Z,13.87
2018-12-09T10:06:18.608Z,14.23
2018-12-09T10:08:45.212Z,12.53
2018-12-09T10:11:11.574Z,14.73
2018-12-09T10:13:37.897Z,12.70
2018-12-09T10:16:04.216Z,14.93
2018-12-09T10:18:30.613Z,18.00
2018-12-09T10:20:57.050Z,12.47
2018-12-09T10:23:24.397Z,14.33
2018-12-09T10:25:51.443Z,22.73
2018-12-09T10:28:17.775Z,16.60
2018-12-09T10:30:44.166Z,14.97
2018-12-09T10:33:11.284Z,16.10
2018-12-09T10:35:37.585Z,18.13
2018-12-09T10:38:04.611Z,18.60
2018-12-09T10:40:30.945Z,13.40
2018-12-09T10:42:57.966Z,16.27
2018-12-09T10:45:25.438Z,11.07
2018-12-09T10:47:52.068Z,15.97
2018-12-09T10:50:19.155Z,12.93
2018-12-09T10:52:45.744Z,20.30
2018-12-09T10:55:12.050Z,16.23
2018-12-09T10:57:38.393Z,13.40
2018-12-09T11:00:04.705Z,17.80
2018-12-09T11:02:31.155Z,15.90
2018-12-09T11:04:57.536Z,20.70
2018-12-09T11:07:23.962Z,14.60
2018-12-09T11:09:50.309Z,14.60
2018-12-09T11:12:16.709Z,21.40
2018-12-09T11:14:42.996Z,14.53
2018-12-09T11:17:09.322Z,14.43
2018-12-09T11:19:36.325Z,17.17
2018-12-09T11:22:02.608Z,17.67
2018-12-09T11:24:28.974Z,13.97
2018-12-09T11:26:55.386Z,15.73
2018-12-09T11:29:21.891Z,21.47
2018-12-09T11:31:48.298Z,17.57
2018-12-09T11:34:14.592Z,16.37
2018-12-09T11:36:41.705Z,16.37
2018-12-09T11:39:09.429Z,15.13
2018-12-09T11:41:35.184Z,14.63
2018-12-09T11:44:01.684Z,10.87
2018-12-09T11:46:28.032Z,13.70
2018-12-09T11:48:54.494Z,13.87
2018-12-09T11:51:20.996Z,18.77
2018-12-09T11:53:47.373Z,14.93
2018-12-09T11:56:13.701Z,12.70
2018-12-09T11:58:40.821Z,16.07
2018-12-09T12:01:07.177Z,11.83
2018-12-09T12:03:33.751Z,9.67
2018-12-09T12:06:00.053Z,11.77
2018-12-09T12:08:26.423Z,7.87
2018-12-09T12:10:52.744Z,9.83
2018-12-09T12:13:19.055Z,9.93
2018-12-09T12:15:46.191Z,11.03
2018-12-09T12:18:12.647Z,10.80
2018-12-09T12:20:38.971Z,8.77
2018-12-09T12:23:05.394Z,6.73
2018-12-09T12:25:31.721Z,9.43
2018-12-09T12:27:58.016Z,9.07
2018-12-09T12:30:26.189Z,12.17
2018-12-09T12:32:51.622Z,12.50
2018-12-09T12:35:17.987Z,11.30
2018-12-09T12:37:44.465Z,9.03
2018-12-09T12:40:10.901Z,12.53
2018-12-09T12:42:37.194Z,10.17
2018-12-09T12:45:03.582Z,8.53
2018-12-09T12:47:32.158Z,11.47
2018-12-09T12:50:00.255Z,9.93
2018-12-09T12:52:26.677Z,11.97
2018-12-09T12:54:53.734Z,10.47
2018-12-09T12:57:20.787Z,8.60
2018-12-09T12:59:47.083Z,11.97
2018-12-09T13:02:13.386Z,13.30
2018-12-09T13:04:39.657Z,11.17
2018-12-09T13:07:06.213Z,12.23
2018-12-09T13:09:32.490Z,13.07
2018-12-09T13:11:58.748Z,11.57
2018-12-09T13:14:25.640Z,10.10
2018-12-09T13:16:52.713Z,12.53
2018-12-09T13:19:19.102Z,11.60
2018-12-09T13:21:45.394Z,9.10
2018-12-09T13:24:13.392Z,12.37
2018-12-09T13:26:40.465Z,11.17
2018-12-09T13:29:07.480Z,13.17
2018-12-09T13:31:33.892Z,12.60
2018-12-09T13:34:00.620Z,11.20
2018-12-09T13:36:26.977Z,13.23
2018-12-09T13:38:53.261Z,10.87
2018-12-09T13:41:19.557Z,13.03
2018-12-09T13:43:45.942Z,12.27
2018-12-09T13:46:12.277Z,8.40
2018-12-09T13:48:39.336Z,14.67
2018-12-09T13:51:05.728Z,11.67
2018-12-09T13:53:32.203Z,12.97
2018-12-09T13:55:59.234Z,12.07
2018-12-09T13:58:25.631Z,16.23
2018-12-09T14:00:52.081Z,10.37
2018-12-09T14:03:18.379Z,13.67
2018-12-09T14:05:44.720Z,12.80
2018-12-09T14:08:11.808Z,11.77
2018-12-09T14:10:38.213Z,10.87
2018-12-09T14:13:04.493Z,12.33
2018-12-09T14:15:30.900Z,14.00
2018-12-09T14:17:57.249Z,7.27
2018-12-09T14:20:23.727Z,8.83
2018-12-09T14:22:50.934Z,8.97
2018-12-09T14:25:17.276Z,9.23
2018-12-09T14:27:43.664Z,10.83
2018-12-09T14:36:56.446Z,7.17
2018-12-09T14:39:22.043Z,9.97
2018-12-09T14:41:48.542Z,11.87
2018-12-09T14:44:14.891Z,12.43
2018-12-09T14:46:42.012Z,7.23
2018-12-09T14:49:09.190Z,10.37
2018-12-09T14:51:35.711Z,9.80
2018-12-09T14:54:02.064Z,6.43
2018-12-09T14:56:29.139Z,7.17
2018-12-09T14:58:55.576Z,5.10
2018-12-09T15:01:23.021Z,5.97
2018-12-09T15:03:50.346Z,7.20
2018-12-09T15:06:16.868Z,6.17
2018-12-09T15:08:43.275Z,8.67
2018-12-09T15:11:11.264Z,7.73
2018-12-09T15:13:37.616Z,6.23
2018-12-09T15:16:04.077Z,6.23
2018-12-09T15:18:30.529Z,7.77
2018-12-09T15:20:56.919Z,5.67
2018-12-09T15:23:23.396Z,7.70
2018-12-09T15:25:49.754Z,8.23
2018-12-09T15:28:16.848Z,7.30
2018-12-09T15:30:43.232Z,9.10
2018-12-09T15:33:09.546Z,9.43
2018-12-09T15:35:35.982Z,6.03
2018-12-09T15:38:03.084Z,4.73
2018-12-09T15:40:29.495Z,4.57
2018-12-09T15:42:56.577Z,6.30
2018-12-09T15:45:23.070Z,7.10
2018-12-09T15:47:49.396Z,3.73
2018-12-09T15:50:16.477Z,8.57
2018-12-09T15:52:43.060Z,9.13
2018-12-09T15:55:09.429Z,5.67
2018-12-09T15:57:36.668Z,5.00
2018-12-09T16:00:03.443Z,7.53
2018-12-09T16:02:29.802Z,5.07
2018-12-09T16:04:57.404Z,4.57
2018-12-09T16:07:22.539Z,5.10
2018-12-09T16:09:48.864Z,7.80
2018-12-09T16:12:15.251Z,8.73
2018-12-09T16:14:41.542Z,7.03
2018-12-09T16:17:07.889Z,6.43
2018-12-09T16:19:34.225Z,4.87
2018-12-09T16:22:00.668Z,6.07
2018-12-09T16:24:27.750Z,4.30
2018-12-09T16:26:54.395Z,5.50
2018-12-09T16:29:20.719Z,6.17
2018-12-09T16:31:47.158Z,5.10
2018-12-09T16:34:13.481Z,3.40
2018-12-09T16:36:39.988Z,4.93
2018-12-09T16:39:07.222Z,6.40
2018-12-09T16:41:33.541Z,4.07
2018-12-09T16:43:59.850Z,4.97
2018-12-09T16:46:26.255Z,4.93
2018-12-09T16:48:52.781Z,4.47
2018-12-09T16:51:19.188Z,5.60
2018-12-09T16:53:46.281Z,4.07
2018-12-09T16:56:12.622Z,3.20
2018-12-09T16:58:39.725Z,4.57
2018-12-09T17:01:06.091Z,5.90
2018-12-09T17:03:32.410Z,3.23
2018-12-09T17:05:58.840Z,3.57
2018-12-09T17:08:25.283Z,4.00
2018-12-09T17:10:51.592Z,3.57
2018-12-09T17:13:17.924Z,2.80
2018-12-09T17:15:45.066Z,5.43
2018-12-09T17:18:12.131Z,4.97
2018-12-09T17:20:38.511Z,5.20
2018-12-09T17:23:04.828Z,6.00
2018-12-09T17:25:31.184Z,6.37
2018-12-09T17:27:58.221Z,4.10
2018-12-09T17:30:25.344Z,3.80
2018-12-09T17:32:51.656Z,6.70
2018-12-09T17:35:18.645Z,7.00
2018-12-09T17:37:45.083Z,4.33
2018-12-09T17:40:11.392Z,5.10
2018-12-09T17:42:37.827Z,4.13
2018-12-09T17:45:04.201Z,9.77
2018-12-09T17:47:30.571Z,4.90
2018-12-09T17:49:56.935Z,7.13
2018-12-09T17:52:23.229Z,3.03
2018-12-09T17:54:49.553Z,7.77
2018-12-09T17:57:15.883Z,5.03
2018-12-09T17:59:42.245Z,4.87
2018-12-09T18:02:09.303Z,3.80
2018-12-09T18:04:35.627Z,5.10
2018-12-09T18:07:01.970Z,5.50
2018-12-09T18:09:28.263Z,5.30
2018-12-09T18:11:54.586Z,3.33
2018-12-09T18:14:20.916Z,4.73
2018-12-09T18:16:47.245Z,5.80
2018-12-09T18:19:14.198Z,3.37
2018-12-09T18:21:40.586Z,4.57
2018-12-09T18:24:06.887Z,3.10
2018-12-09T18:26:33.922Z,4.93
2018-12-09T18:29:00.268Z,4.13
2018-12-09T18:31:27.491Z,3.93
2018-12-09T18:33:53.785Z,3.20
2018-12-09T18:36:20.104Z,3.50
2018-12-09T18:38:46.440Z,3.03
2018-12-09T18:41:12.876Z,6.20
2018-12-09T18:43:39.208Z,4.60
2018-12-09T18:46:06.302Z,3.83
2018-12-09T18:48:32.639Z,4.90
2018-12-09T18:50:59.021Z,4.40
2018-12-09T18:53:26.671Z,3.90
2018-12-09T18:55:53.013Z,2.77
2018-12-09T19:01:04.126Z,3.93
2018-12-09T19:03:31.345Z,5.20
2018-12-09T19:05:58.490Z,6.37
2018-12-09T19:08:24.871Z,2.53
2018-12-09T19:10:51.329Z,4.70
2018-12-09T19:13:18.388Z,3.20
2018-12-09T19:15:44.693Z,4.80
2018-12-09T19:18:11.777Z,2.27
2018-12-09T19:20:38.088Z,3.67
2018-12-09T19:23:04.420Z,3.57
2018-12-09T19:25:30.753Z,2.87
2018-12-09T19:27:57.110Z,2.30
2018-12-09T19:30:24.523Z,3.30
2018-12-09T19:32:51.817Z,3.33
2018-12-09T19:35:18.099Z,4.83
2018-12-09T19:37:44.400Z,3.97
2018-12-09T19:40:10.740Z,2.20
2018-12-09T19:42:37.022Z,4.20
2018-12-09T19:45:03.410Z,3.80
2018-12-09T19:47:30.811Z,2.27
2018-12-09T19:49:57.162Z,3.93
2018-12-09T19:52:23.509Z,2.70
2018-12-09T19:54:49.915Z,3.17
2018-12-09T19:57:16.323Z,3.70
2018-12-09T19:59:42.631Z,3.37
2018-12-09T20:02:09.115Z,3.00
2018-12-09T20:04:35.522Z,5.40
2018-12-09T20:07:02.702Z,6.23
2018-12-09T20:09:29.117Z,5.17
2018-12-09T20:11:55.478Z,4.80
2018-12-09T20:14:21.792Z,6.83
2018-12-09T20:16:48.912Z,5.20
2018-12-09T20:19:15.223Z,4.87
2018-12-09T20:21:42.157Z,5.40
2018-12-09T20:24:09.008Z,3.03
2018-12-09T20:26:36.145Z,4.70
2018-12-09T20:29:02.417Z,4.00
2018-12-09T20:31:28.863Z,3.37
2018-12-09T20:33:55.998Z,4.67
2018-12-09T20:36:22.333Z,3.93
2018-12-09T20:38:48.647Z,5.77
2018-12-09T20:41:14.948Z,3.80
2018-12-09T20:43:42.070Z,3.37
2018-12-09T20:46:15.968Z,3.97
2018-12-09T20:48:42.286Z,1.50
2018-12-09T20:51:08.616Z,8.43
2018-12-09T20:53:34.944Z,5.43
2018-12-09T20:56:01.299Z,3.23
2018-12-09T20:58:27.887Z,4.10
2018-12-09T21:00:54.181Z,5.93
2018-12-09T21:03:21.293Z,3.60
2018-12-09T21:05:47.860Z,4.63
2018-12-09T21:08:14.172Z,3.83
2018-12-09T21:10:40.524Z,3.97
2018-12-09T21:13:07.097Z,3.90
2018-12-09T21:15:33.789Z,5.57
2018-12-09T21:18:01.050Z,3.93
2018-12-09T21:20:27.540Z,4.03
2018-12-09T21:22:53.906Z,5.07
2018-12-09T21:25:20.997Z,4.17
2018-12-09T21:27:47.433Z,5.57
2018-12-09T21:30:13.665Z,4.70
2018-12-09T21:32:39.979Z,3.67
2018-12-09T21:35:06.344Z,4.33
2018-12-09T21:37:32.687Z,3.23
2018-12-09T21:39:58.974Z,7.63
2018-12-09T21:42:25.563Z,5.57
2018-12-09T21:44:51.847Z,4.93
2018-12-09T21:47:18.127Z,5.70
2018-12-09T21:49:44.409Z,5.67
2018-12-09T21:52:10.751Z,4.90
2018-12-09T21:54:36.998Z,2.77
2018-12-09T21:57:03.276Z,2.93
2018-12-09T21:59:29.556Z,3.47
2018-12-09T22:01:55.841Z,3.47
2018-12-09T22:04:22.091Z,5.90
2018-12-09T22:06:48.357Z,4.53
2018-12-09T22:09:15.425Z,3.30
2018-12-09T22:11:42.448Z,2.27
2018-12-09T22:14:08.752Z,3.60
2018-12-09T22:16:35.018Z,4.43
2018-12-09T22:19:02.056Z,2.30
2018-12-09T22:21:29.077Z,3.23
2018-12-09T22:23:55.328Z,3.57
2018-12-09T22:26:22.379Z,2.17
2018-12-09T22:28:48.633Z,3.67
2018-12-09T22:31:14.969Z,4.10
2018-12-09T22:33:41.216Z,3.40
2018-12-09T22:36:07.480Z,4.00
2018-12-09T22:38:33.735Z,3.47
2018-12-09T22:41:01.401Z,2.30
2018-12-09T22:43:28.391Z,4.87
2018-12-09T22:45:54.664Z,3.57
2018-12-09T22:48:20.956Z,4.53
2018-12-09T22:50:47.188Z,7.63
2018-12-09T22:53:13.502Z,3.87
2018-12-09T22:55:39.789Z,3.53
2018-12-09T22:58:06.075Z,5.37
2018-12-09T23:00:32.381Z,3.90
2018-12-09T23:03:01.766Z,3.93
2018-12-09T23:05:28.082Z,4.87
2018-12-09T23:07:54.427Z,6.00
2018-12-09T23:10:20.680Z,3.23
2018-12-09T23:12:46.985Z,5.73
2018-12-09T23:15:13.289Z,5.07
2018-12-09T23:17:39.548Z,2.70
2018-12-09T23:20:05.842Z,2.70
2018-12-09T23:22:32.859Z,3.93
2018-12-09T23:24:59.092Z,4.23
2018-12-09T23:27:25.625Z,4.10
2018-12-09T23:29:52.025Z,3.40
2018-12-09T23:32:18.268Z,2.40
2018-12-09T23:34:44.531Z,3.07
2018-12-09T23:37:11.532Z,3.37
2018-12-09T23:39:37.792Z,3.33
2018-12-09T23:42:04.777Z,4.23
2018-12-09T23:44:31.065Z,3.40
2018-12-09T23:46:57.357Z,2.97
2018-12-09T23:49:23.619Z,5.97
2018-12-09T23:51:49.852Z,3.40
2018-12-09T23:54:16.141Z,3.77
2018-12-09T23:56:42.395Z,5.70
2018-12-09T23:59:08.671Z,3.17
